CW5709 Weather Reports


Display with metric or nautical units.
time (UTC)temp
F
wind
direction
speed
MPH
gust
MPH
rain 1hr
in
rain 24hr
in
rain mn
in
humidity
%
barometer
mb
20210729064513 70 225 0.0 0.0 0.00 0.00 0.00 57 1017.8
20210729063506 70 225 0.0 0.0 0.00 0.00 0.00 55 1017.8
20210729062505 70 225 0.0 0.0 0.00 0.00 0.00 55 1017.7
20210729061522 71 225 0.0 0.0 0.00 0.00 0.00 52 1017.7
20210729060501 71 225 0.0 0.0 0.00 0.00 0.00 52 1017.5
20210729055517 72 225 0.0 0.0 0.00 0.00 0.00 51 1017.4
20210729054509 72 225 0.0 0.0 0.00 0.00 0.00 51 1017.4
20210729053506 73 225 0.0 0.0 0.00 0.00 0.00 51 1017.4
20210729052507 73 225 0.0 1.0 0.00 0.00 0.00 49 1017.4
20210729051518 73 225 1.0 3.0 0.00 0.00 0.00 49 1017.4
20210729050516 74 224 0.0 1.0 0.00 0.00 0.00 48 1017.4
20210729045513 74 224 0.0 1.0 0.00 0.00 0.00 47 1017.2
20210729044512 75 224 0.0 2.0 0.00 0.00 0.00 46 1017.2
20210729043508 76 224 1.0 7.0 0.00 0.00 0.00 46 1017.2
20210729042505 76 293 1.0 7.0 0.00 0.00 0.00 44 1017.3
20210729041503 77 192 0.0 0.0 0.00 0.00 0.00 43 1017.1
20210729040502 78 192 0.0 3.0 0.00 0.00 0.00 43 1017.0
20210729035516 79 250 0.0 1.0 0.00 0.00 0.00 42 1017.1
20210729034517 79 250 0.0 3.0 0.00 0.00 0.00 41 1017.1
20210729033513 80 266 0.0 7.0 0.00 0.00 0.00 41 1016.9
20210729032508 80 308 2.0 7.0 0.00 0.00 0.00 38 1016.8
20210729031503 81 285 2.0 10.0 0.00 0.00 0.00 38 1016.7
20210729030522 81 283 1.0 8.0 0.00 0.00 0.00 41 1016.8
20210729025519 82 206 0.0 4.0 0.00 0.00 0.00 41 1016.8
20210729024517 82 259 0.0 2.0 0.00 0.00 0.00 40 1016.7
20210729023511 83 300 0.0 4.0 0.00 0.00 0.00 41 1016.7
20210729022510 84 294 0.0 2.0 0.00 0.00 0.00 39 1016.7
20210729021511 84 277 1.0 4.0 0.00 0.00 0.00 38 1016.6
20210729020519 85 272 0.0 6.0 0.00 0.00 0.00 37 1016.6
20210729015521 86 292 2.0 9.0 0.00 0.00 0.00 35 1016.5
20210729014509 86 285 2.0 9.0 0.00 0.00 0.00 37 1016.5
20210729012526 87 290 1.0 6.0 0.00 0.00 0.00 35 1016.4
20210729011559 88 302 0.0 8.0 0.00 0.00 0.00 33 1016.4
20210729005549 91 215 2.0 10.0 0.00 0.00 0.00 29 1016.5
20210729004558 91 186 1.0 4.0 0.00 0.00 0.00 33 1016.4
20210729003520 92 294 0.0 5.0 0.00 0.00 0.00 27 1016.5
20210729002547 92 78 0.0 3.0 0.00 0.00 0.00 23 1016.5
20210729001504 92 350 0.0 9.0 0.00 0.00 0.00 23 1016.6
20210729000552 92 9 1.0 10.0 0.00 0.00 0.00 23 1016.7
20210728235529 92 50 4.0 10.0 0.00 0.00 0.00 24 1016.8
20210728234605 92 59 1.0 8.0 0.00 0.00 0.00 26 1016.7
20210728232539 92 69 2.0 9.0 0.00 0.00 0.00 25 1016.9
20210728231602 93 60 0.0 6.0 0.00 0.00 0.00 26 1017.0
20210728225507 92 54 0.0 8.0 0.00 0.00 0.00 27 1017.2
20210728224557 92 75 0.0 1.0 0.00 0.00 0.00 27 1017.3
20210728222557 93 80 0.0 1.0 0.00 0.00 0.00 28 1017.4
20210728221616 93 146 1.0 7.0 0.00 0.00 0.00 28 1017.6
20210728215546 93 80 0.0 4.0 0.00 0.00 0.00 26 1017.9
20210728214559 94 37 4.0 10.0 0.00 0.00 0.00 25 1018.0
20210728213524 95 71 4.0 7.0 0.00 0.00 0.00 24 1018.2
20210728212538 95 71 0.0 8.0 0.00 0.00 0.00 27 1018.1
20210728211513 95 99 0.0 9.0 0.00 0.00 0.00 27 1018.3
20210728210517 95 92 2.0 10.0 0.00 0.00 0.00 26 1018.4
20210728205544 94 169 3.0 8.0 0.00 0.00 0.00 28 1018.4
20210728204629 93 86 3.0 8.0 0.00 0.00 0.00 28 1018.4
20210728203611 93 81 3.0 9.0 0.00 0.00 0.00 28 1018.6
20210728202537 93 76 0.0 6.0 0.00 0.00 0.00 30 1018.7
20210728201529 91 79 1.0 7.0 0.00 0.00 0.00 31 1018.7
20210728200558 91 76 1.0 4.0 0.00 0.00 0.00 34 1018.8
20210728195518 90 10 0.0 1.0 0.00 0.00 0.00 32 1018.9
20210728194556 90 9 0.0 9.0 0.00 0.00 0.00 31 1019.2
20210728193516 90 67 1.0 5.0 0.00 0.00 0.00 31 1019.4
20210728192558 89 78 1.0 3.0 0.00 0.00 0.00 35 1019.4
20210728191540 87 74 0.0 5.0 0.00 0.00 0.00 37 1019.5
20210728190539 86 88 1.0 6.0 0.00 0.00 0.00 37 1019.7
20210728185513 85 40 4.0 11.0 0.00 0.00 0.00 36 1019.6
20210728184603 83 71 0.0 4.0 0.00 0.00 0.00 41 1019.7
20210728183523 81 70 2.0 7.0 0.00 0.00 0.00 44 1019.7
20210728182516 79 81 1.0 5.0 0.00 0.00 0.00 51 1019.7
20210728181507 78 80 0.0 3.0 0.00 0.00 0.00 48 1019.7
20210728175559 76 78 0.0 5.0 0.00 0.00 0.00 50 1019.8
20210728174510 76 77 0.0 1.0 0.00 0.00 0.00 51 1019.9
20210728172522 75 351 2.0 5.0 0.00 0.00 0.00 53 1020.0
20210728171508 74 31 0.0 4.0 0.00 0.00 0.00 55 1020.1
20210728170553 73 73 1.0 4.0 0.00 0.00 0.00 56 1020.3
20210728165532 72 63 0.0 4.0 0.00 0.00 0.00 57 1020.2
20210728164532 71 67 0.0 4.0 0.00 0.00 0.00 58 1020.3
20210728163458 70 57 2.0 6.0 0.00 0.00 0.00 60 1020.4
20210728162533 69 13 0.0 4.0 0.00 0.00 0.00 63 1020.5
20210728161603 67 34 0.0 4.0 0.00 0.00 0.00 66 1020.5
20210728155542 65 277 0.0 2.0 0.00 0.00 0.00 72 1020.5
20210728154458 64 269 0.0 1.0 0.00 0.00 0.00 75 1020.4
20210728153506 63 269 0.0 1.0 0.00 0.00 0.00 77 1020.5
20210728152556 62 269 0.0 0.0 0.00 0.00 0.00 79 1020.5
20210728151458 61 269 0.0 0.0 0.00 0.00 0.00 80 1020.5
20210728150500 61 269 0.0 1.0 0.00 0.00 0.00 81 1020.3
20210728145526 60 269 0.0 0.0 0.00 0.00 0.00 83 1020.4
20210728144600 60 269 0.0 1.0 0.00 0.00 0.00 83 1020.5
20210728143524 59 269 0.0 0.0 0.00 0.00 0.00 84 1020.5
20210728142547 58 269 0.0 0.0 0.00 0.00 0.00 84 1020.4
20210728141501 58 269 0.0 0.0 0.00 0.00 0.00 85 1020.4
20210728140530 58 269 0.0 0.0 0.00 0.00 0.00 84 1020.2
20210728135612 57 269 0.0 0.0 0.00 0.00 0.00 84 1020.2
20210728134506 57 269 0.0 0.0 0.00 0.00 0.00 84 1020.1
20210728133525 57 269 0.0 0.0 0.00 0.00 0.00 84 1020.1
20210728132644 57 269 0.0 0.0 0.00 0.00 0.00 83 1020.3
20210728131548 57 269 0.0 0.0 0.00 0.00 0.00 83 1020.2
20210728125557 57 269 0.0 0.0 0.00 0.00 0.00 83 1020.1
20210728124522 57 269 0.0 0.0 0.00 0.00 0.00 83 1020.2
20210728123521 57 269 0.0 0.0 0.00 0.00 0.00 82 1020.0
20210728122525 57 269 0.0 0.0 0.00 0.00 0.00 82 1019.9
20210728121547 57 269 0.0 0.0 0.00 0.00 0.00 81 1019.9
20210728115557 58 269 0.0 0.0 0.00 0.00 0.00 80 1020.2
20210728114544 58 269 0.0 0.0 0.00 0.00 0.00 80 1020.3
20210728112541 58 269 0.0 1.0 0.00 0.00 0.00 80 1020.3
20210728111546 58 269 1.0 3.0 0.00 0.00 0.00 80 1020.3
20210728110514 59 267 0.0 0.0 0.00 0.00 0.00 79 1020.2
20210728105514 59 267 0.0 0.0 0.00 0.00 0.00 79 1020.2
20210728104547 59 267 0.0 0.0 0.00 0.00 0.00 78 1020.1
20210728103518 60 267 0.0 0.0 0.00 0.00 0.00 78 1020.0
20210728102602 60 267 0.0 0.0 0.00 0.00 0.00 77 1019.8
20210728100601 60 267 0.0 0.0 0.00 0.00 0.00 76 1019.7
20210728095519 61 267 0.0 0.0 0.00 0.00 0.00 75 1019.7
20210728094604 61 267 0.0 0.0 0.00 0.00 0.00 75 1019.6
20210728092600 61 267 0.0 0.0 0.00 0.00 0.00 74 1019.7
20210728091553 62 267 0.0 3.0 0.00 0.00 0.00 74 1019.6
20210728090547 62 249 0.0 1.0 0.00 0.00 0.00 73 1019.5
20210728085510 62 249 0.0 2.0 0.00 0.00 0.00 73 1019.5
20210728084601 62 248 0.0 1.0 0.00 0.00 0.00 72 1019.4
20210728083609 63 248 0.0 0.0 0.00 0.00 0.00 72 1019.3
20210728082557 63 248 0.0 1.0 0.00 0.00 0.00 71 1019.5
20210728075624 64 248 0.0 2.0 0.00 0.00 0.00 69 1019.3
20210728074502 64 248 0.0 1.0 0.00 0.00 0.00 69 1019.2
20210728072459 65 248 0.0 2.0 0.00 0.00 0.00 66 1019.4
20210728071600 65 248 0.0 0.0 0.00 0.00 0.00 66 1019.4
20210728070505 65 248 0.0 0.0 0.00 0.00 0.00 65 1019.3
20210728065605 66 248 0.0 1.0 0.00 0.00 0.00 64 1019.2